Terminal Aerodrome Forecast
Issued by NWS Raleigh/Durham, NC

Home | Current Version | Previous Version | Text Only | Print | Product List | Glossary On
Versions: 1 2 3 4 5 6 7 8 9 10 11 12 13 14 15 16 17 18 19 20 21 22 23 24 25 26 27 28 29 30 31 32 33 34 35 36 37 38 39 40 41 42 43 44 45 46 47
000
FTUS42 KRAH 020531
TAFFAY
TAF
KFAY 020531Z 0206/0306 19006KT P6SM BKN100
     FM021000 20005KT 5SM BR FEW007 BKN090
      TEMPO 0211/0215 3SM -SHRA BR BKN025
     FM021500 27006KT P6SM VCSH SCT035 OVC090
      TEMPO 0217/0221 3SM -TSRA BR SCT020 BKN030CB
     FM022100 09006KT P6SM VCSH FEW035 OVC100=

USA.gov is the U.S. government's official web portal to all federal, state and local government web resources and services.